sensor_id;sensor_type;location;lat;lon;timestamp;P1;durP1;ratioP1;P2;durP2;ratioP2
74223;SDS011;62585;49.706;18.216;2023-09-19T00:01:08;14.32;;;9.48;;
74223;SDS011;62585;49.706;18.216;2023-09-19T00:03:39;12.82;;;8.85;;
74223;SDS011;62585;49.706;18.216;2023-09-19T00:06:07;14.45;;;9.90;;
74223;SDS011;62585;49.706;18.216;2023-09-19T00:08:33;12.85;;;9.52;;
74223;SDS011;62585;49.706;18.216;2023-09-19T00:11:00;14.07;;;9.63;;
74223;SDS011;62585;49.706;18.216;2023-09-19T00:13:31;16.50;;;9.65;;
74223;SDS011;62585;49.706;18.216;2023-09-19T00:15:59;13.35;;;9.13;;
74223;SDS011;62585;49.706;18.216;2023-09-19T00:18:25;12.93;;;9.25;;
74223;SDS011;62585;49.706;18.216;2023-09-19T00:20:58;12.63;;;8.43;;
74223;SDS011;62585;49.706;18.216;2023-09-19T00:23:24;13.35;;;8.88;;
74223;SDS011;62585;49.706;18.216;2023-09-19T00:25:50;11.40;;;8.20;;
74223;SDS011;62585;49.706;18.216;2023-09-19T00:28:16;13.25;;;8.23;;
74223;SDS011;62585;49.706;18.216;2023-09-19T00:30:44;12.65;;;8.75;;
74223;SDS011;62585;49.706;18.216;2023-09-19T00:33:10;12.85;;;8.10;;
74223;SDS011;62585;49.706;18.216;2023-09-19T00:35:48;11.82;;;8.32;;
74223;SDS011;62585;49.706;18.216;2023-09-19T00:38:17;13.50;;;8.35;;
74223;SDS011;62585;49.706;18.216;2023-09-19T00:40:47;10.55;;;8.00;;
74223;SDS011;62585;49.706;18.216;2023-09-19T00:43:13;13.43;;;9.25;;
74223;SDS011;62585;49.706;18.216;2023-09-19T00:45:43;14.82;;;9.00;;
74223;SDS011;62585;49.706;18.216;2023-09-19T00:48:10;12.32;;;8.15;;
74223;SDS011;62585;49.706;18.216;2023-09-19T00:50:37;12.55;;;9.40;;
74223;SDS011;62585;49.706;18.216;2023-09-19T00:53:07;15.32;;;8.55;;
74223;SDS011;62585;49.706;18.216;2023-09-19T00:55:34;13.98;;;8.73;;
74223;SDS011;62585;49.706;18.216;2023-09-19T00:58:02;12.48;;;7.93;;
74223;SDS011;62585;49.706;18.216;2023-09-19T01:00:31;13.80;;;8.65;;
74223;SDS011;62585;49.706;18.216;2023-09-19T01:03:02;13.88;;;8.23;;
74223;SDS011;62585;49.706;18.216;2023-09-19T01:05:28;14.07;;;8.77;;
74223;SDS011;62585;49.706;18.216;2023-09-19T01:07:57;13.48;;;7.95;;
74223;SDS011;62585;49.706;18.216;2023-09-19T01:10:23;15.05;;;9.43;;
74223;SDS011;62585;49.706;18.216;2023-09-19T01:18:11;12.07;;;8.38;;
74223;SDS011;62585;49.706;18.216;2023-09-19T01:21:05;14.02;;;8.77;;
74223;SDS011;62585;49.706;18.216;2023-09-19T01:24:22;11.90;;;8.65;;
74223;SDS011;62585;49.706;18.216;2023-09-19T01:31:57;13.35;;;9.00;;
74223;SDS011;62585;49.706;18.216;2023-09-19T01:34:43;13.73;;;8.25;;
74223;SDS011;62585;49.706;18.216;2023-09-19T01:37:18;12.48;;;7.97;;
74223;SDS011;62585;49.706;18.216;2023-09-19T01:39:50;14.70;;;9.05;;
74223;SDS011;62585;49.706;18.216;2023-09-19T01:42:31;13.02;;;8.00;;
74223;SDS011;62585;49.706;18.216;2023-09-19T01:47:51;14.00;;;9.43;;
74223;SDS011;62585;49.706;18.216;2023-09-19T01:52:57;12.65;;;8.65;;
74223;SDS011;62585;49.706;18.216;2023-09-19T01:55:29;13.70;;;9.23;;
74223;SDS011;62585;49.706;18.216;2023-09-19T01:58:16;14.10;;;9.25;;
74223;SDS011;62585;49.706;18.216;2023-09-19T02:00:48;13.68;;;8.57;;
74223;SDS011;62585;49.706;18.216;2023-09-19T02:03:17;13.23;;;8.90;;
74223;SDS011;62585;49.706;18.216;2023-09-19T02:05:50;15.10;;;8.30;;
74223;SDS011;62585;49.706;18.216;2023-09-19T02:08:17;13.43;;;8.43;;
74223;SDS011;62585;49.706;18.216;2023-09-19T02:13:20;15.55;;;9.38;;
74223;SDS011;62585;49.706;18.216;2023-09-19T02:15:47;12.45;;;8.07;;
74223;SDS011;62585;49.706;18.216;2023-09-19T02:18:13;13.98;;;9.05;;
74223;SDS011;62585;49.706;18.216;2023-09-19T02:20:42;18.55;;;10.15;;
74223;SDS011;62585;49.706;18.216;2023-09-19T02:23:08;14.55;;;9.75;;
74223;SDS011;62585;49.706;18.216;2023-09-19T02:25:35;16.73;;;10.00;;
74223;SDS011;62585;49.706;18.216;2023-09-19T02:28:01;17.10;;;10.18;;
74223;SDS011;62585;49.706;18.216;2023-09-19T02:30:28;16.05;;;10.05;;
74223;SDS011;62585;49.706;18.216;2023-09-19T02:32:54;16.13;;;10.13;;
74223;SDS011;62585;49.706;18.216;2023-09-19T02:35:20;15.82;;;10.10;;
74223;SDS011;62585;49.706;18.216;2023-09-19T02:37:46;14.80;;;9.82;;
74223;SDS011;62585;49.706;18.216;2023-09-19T02:40:12;15.52;;;10.48;;
74223;SDS011;62585;49.706;18.216;2023-09-19T02:42:48;14.95;;;9.68;;
74223;SDS011;62585;49.706;18.216;2023-09-19T02:45:15;14.57;;;9.32;;
74223;SDS011;62585;49.706;18.216;2023-09-19T02:47:43;17.27;;;10.07;;
74223;SDS011;62585;49.706;18.216;2023-09-19T02:52:36;16.77;;;9.80;;
74223;SDS011;62585;49.706;18.216;2023-09-19T02:55:02;17.20;;;10.32;;
74223;SDS011;62585;49.706;18.216;2023-09-19T02:57:30;17.17;;;10.63;;
74223;SDS011;62585;49.706;18.216;2023-09-19T02:59:59;14.27;;;9.40;;
74223;SDS011;62585;49.706;18.216;2023-09-19T03:02:26;14.93;;;9.63;;
74223;SDS011;62585;49.706;18.216;2023-09-19T03:04:53;14.77;;;9.50;;
74223;SDS011;62585;49.706;18.216;2023-09-19T03:07:19;15.27;;;9.90;;
74223;SDS011;62585;49.706;18.216;2023-09-19T03:09:45;15.90;;;10.40;;
74223;SDS011;62585;49.706;18.216;2023-09-19T03:12:11;17.10;;;9.55;;
74223;SDS011;62585;49.706;18.216;2023-09-19T03:14:40;18.33;;;11.07;;
74223;SDS011;62585;49.706;18.216;2023-09-19T03:17:05;17.38;;;10.15;;
74223;SDS011;62585;49.706;18.216;2023-09-19T03:19:31;15.40;;;9.57;;
74223;SDS011;62585;49.706;18.216;2023-09-19T03:21:59;13.30;;;8.65;;
74223;SDS011;62585;49.706;18.216;2023-09-19T03:24:25;14.48;;;9.00;;
74223;SDS011;62585;49.706;18.216;2023-09-19T03:26:51;15.07;;;9.75;;
74223;SDS011;62585;49.706;18.216;2023-09-19T03:29:17;14.40;;;9.60;;
74223;SDS011;62585;49.706;18.216;2023-09-19T03:31:43;18.75;;;9.63;;
74223;SDS011;62585;49.706;18.216;2023-09-19T03:34:09;14.60;;;9.55;;
74223;SDS011;62585;49.706;18.216;2023-09-19T03:36:35;13.05;;;8.75;;
74223;SDS011;62585;49.706;18.216;2023-09-19T03:39:01;16.30;;;10.07;;
74223;SDS011;62585;49.706;18.216;2023-09-19T03:41:30;14.82;;;9.05;;
74223;SDS011;62585;49.706;18.216;2023-09-19T03:43:57;20.05;;;10.13;;
74223;SDS011;62585;49.706;18.216;2023-09-19T03:46:22;14.23;;;9.02;;
74223;SDS011;62585;49.706;18.216;2023-09-19T03:48:48;13.80;;;8.13;;
74223;SDS011;62585;49.706;18.216;2023-09-19T03:51:14;14.45;;;10.27;;
74223;SDS011;62585;49.706;18.216;2023-09-19T03:53:40;14.55;;;8.82;;
74223;SDS011;62585;49.706;18.216;2023-09-19T03:56:05;14.75;;;8.65;;
74223;SDS011;62585;49.706;18.216;2023-09-19T03:58:31;14.65;;;9.13;;
74223;SDS011;62585;49.706;18.216;2023-09-19T04:00:59;15.90;;;8.98;;
74223;SDS011;62585;49.706;18.216;2023-09-19T04:03:25;15.10;;;9.32;;
74223;SDS011;62585;49.706;18.216;2023-09-19T04:05:59;14.45;;;9.27;;
74223;SDS011;62585;49.706;18.216;2023-09-19T04:08:26;14.35;;;8.90;;
74223;SDS011;62585;49.706;18.216;2023-09-19T04:10:52;14.63;;;9.00;;
74223;SDS011;62585;49.706;18.216;2023-09-19T04:13:18;14.65;;;9.35;;
74223;SDS011;62585;49.706;18.216;2023-09-19T04:15:44;14.95;;;9.70;;
74223;SDS011;62585;49.706;18.216;2023-09-19T04:18:11;14.60;;;9.43;;
74223;SDS011;62585;49.706;18.216;2023-09-19T04:20:37;15.00;;;9.35;;
74223;SDS011;62585;49.706;18.216;2023-09-19T04:23:03;14.27;;;9.90;;
74223;SDS011;62585;49.706;18.216;2023-09-19T04:25:30;12.95;;;9.27;;
74223;SDS011;62585;49.706;18.216;2023-09-19T04:27:57;15.88;;;9.25;;
74223;SDS011;62585;49.706;18.216;2023-09-19T04:30:23;12.20;;;8.77;;
74223;SDS011;62585;49.706;18.216;2023-09-19T04:32:49;15.40;;;9.13;;
74223;SDS011;62585;49.706;18.216;2023-09-19T04:35:19;16.02;;;9.80;;
74223;SDS011;62585;49.706;18.216;2023-09-19T04:37:49;11.73;;;7.78;;
74223;SDS011;62585;49.706;18.216;2023-09-19T04:40:16;11.02;;;7.32;;
74223;SDS011;62585;49.706;18.216;2023-09-19T04:42:52;12.02;;;7.45;;
74223;SDS011;62585;49.706;18.216;2023-09-19T04:45:24;9.23;;;6.53;;
74223;SDS011;62585;49.706;18.216;2023-09-19T04:47:51;12.13;;;7.32;;
74223;SDS011;62585;49.706;18.216;2023-09-19T04:50:18;9.05;;;6.13;;
74223;SDS011;62585;49.706;18.216;2023-09-19T04:52:45;8.18;;;5.15;;
74223;SDS011;62585;49.706;18.216;2023-09-19T04:55:11;7.30;;;5.30;;
74223;SDS011;62585;49.706;18.216;2023-09-19T04:57:46;7.75;;;5.40;;
74223;SDS011;62585;49.706;18.216;2023-09-19T05:00:16;7.28;;;4.57;;
74223;SDS011;62585;49.706;18.216;2023-09-19T05:02:45;5.45;;;3.75;;
74223;SDS011;62585;49.706;18.216;2023-09-19T05:05:11;7.55;;;3.67;;
74223;SDS011;62585;49.706;18.216;2023-09-19T05:07:42;6.35;;;3.65;;
74223;SDS011;62585;49.706;18.216;2023-09-19T05:10:08;9.60;;;4.05;;
74223;SDS011;62585;49.706;18.216;2023-09-19T05:12:35;7.68;;;4.43;;
74223;SDS011;62585;49.706;18.216;2023-09-19T05:15:04;9.68;;;4.40;;
74223;SDS011;62585;49.706;18.216;2023-09-19T05:17:32;5.93;;;3.85;;
74223;SDS011;62585;49.706;18.216;2023-09-19T05:19:59;7.57;;;4.30;;
74223;SDS011;62585;49.706;18.216;2023-09-19T05:22:35;7.68;;;4.07;;
74223;SDS011;62585;49.706;18.216;2023-09-19T05:25:00;7.95;;;4.07;;
74223;SDS011;62585;49.706;18.216;2023-09-19T05:27:32;5.43;;;3.72;;
74223;SDS011;62585;49.706;18.216;2023-09-19T05:29:59;7.90;;;4.85;;
74223;SDS011;62585;49.706;18.216;2023-09-19T05:32:25;10.73;;;5.00;;
74223;SDS011;62585;49.706;18.216;2023-09-19T05:34:50;9.45;;;5.32;;
74223;SDS011;62585;49.706;18.216;2023-09-19T05:37:21;10.98;;;6.03;;
74223;SDS011;62585;49.706;18.216;2023-09-19T05:39:48;10.80;;;6.95;;
74223;SDS011;62585;49.706;18.216;2023-09-19T05:42:15;13.35;;;7.28;;
74223;SDS011;62585;49.706;18.216;2023-09-19T05:44:40;12.85;;;6.53;;
74223;SDS011;62585;49.706;18.216;2023-09-19T05:47:06;10.48;;;5.75;;
74223;SDS011;62585;49.706;18.216;2023-09-19T05:49:36;10.88;;;5.22;;
74223;SDS011;62585;49.706;18.216;2023-09-19T05:52:06;9.68;;;5.65;;
74223;SDS011;62585;49.706;18.216;2023-09-19T05:54:35;9.18;;;5.38;;
74223;SDS011;62585;49.706;18.216;2023-09-19T05:57:00;9.13;;;5.47;;
74223;SDS011;62585;49.706;18.216;2023-09-19T05:59:27;10.90;;;5.38;;
74223;SDS011;62585;49.706;18.216;2023-09-19T06:01:53;7.10;;;4.88;;
74223;SDS011;62585;49.706;18.216;2023-09-19T06:04:19;9.05;;;5.20;;
74223;SDS011;62585;49.706;18.216;2023-09-19T06:06:45;5.60;;;2.63;;
74223;SDS011;62585;49.706;18.216;2023-09-19T06:09:13;2.47;;;1.95;;
74223;SDS011;62585;49.706;18.216;2023-09-19T06:11:42;2.63;;;1.40;;
74223;SDS011;62585;49.706;18.216;2023-09-19T06:14:08;2.42;;;1.50;;
74223;SDS011;62585;49.706;18.216;2023-09-19T06:16:35;3.58;;;1.63;;
74223;SDS011;62585;49.706;18.216;2023-09-19T06:19:03;2.85;;;1.55;;
74223;SDS011;62585;49.706;18.216;2023-09-19T06:21:32;3.67;;;1.58;;
74223;SDS011;62585;49.706;18.216;2023-09-19T06:23:57;6.22;;;1.60;;
74223;SDS011;62585;49.706;18.216;2023-09-19T06:26:23;3.58;;;1.40;;
74223;SDS011;62585;49.706;18.216;2023-09-19T06:28:52;2.50;;;1.23;;
74223;SDS011;62585;49.706;18.216;2023-09-19T06:31:17;3.47;;;1.50;;
74223;SDS011;62585;49.706;18.216;2023-09-19T06:33:43;2.72;;;1.75;;
74223;SDS011;62585;49.706;18.216;2023-09-19T06:36:09;2.75;;;1.25;;
74223;SDS011;62585;49.706;18.216;2023-09-19T06:38:36;3.50;;;1.55;;
74223;SDS011;62585;49.706;18.216;2023-09-19T06:41:04;2.60;;;1.25;;
74223;SDS011;62585;49.706;18.216;2023-09-19T06:43:31;3.63;;;1.38;;
74223;SDS011;62585;49.706;18.216;2023-09-19T06:45:58;2.28;;;1.20;;
74223;SDS011;62585;49.706;18.216;2023-09-19T06:48:24;3.03;;;1.70;;
74223;SDS011;62585;49.706;18.216;2023-09-19T06:50:50;5.88;;;1.85;;
74223;SDS011;62585;49.706;18.216;2023-09-19T06:53:17;3.72;;;1.65;;
74223;SDS011;62585;49.706;18.216;2023-09-19T06:55:43;2.60;;;1.60;;
74223;SDS011;62585;49.706;18.216;2023-09-19T06:58:10;3.03;;;1.63;;
74223;SDS011;62585;49.706;18.216;2023-09-19T07:00:36;4.20;;;1.77;;
74223;SDS011;62585;49.706;18.216;2023-09-19T07:03:07;4.18;;;2.28;;
74223;SDS011;62585;49.706;18.216;2023-09-19T07:05:37;3.38;;;2.30;;
74223;SDS011;62585;49.706;18.216;2023-09-19T07:08:05;3.92;;;2.10;;
74223;SDS011;62585;49.706;18.216;2023-09-19T07:10:32;5.28;;;2.90;;
74223;SDS011;62585;49.706;18.216;2023-09-19T07:12:59;4.03;;;2.70;;
74223;SDS011;62585;49.706;18.216;2023-09-19T07:15:27;4.45;;;2.38;;
74223;SDS011;62585;49.706;18.216;2023-09-19T07:17:54;3.72;;;2.45;;
74223;SDS011;62585;49.706;18.216;2023-09-19T07:20:21;3.40;;;2.38;;
74223;SDS011;62585;49.706;18.216;2023-09-19T07:22:51;3.10;;;2.08;;
74223;SDS011;62585;49.706;18.216;2023-09-19T07:25:17;5.47;;;2.70;;
74223;SDS011;62585;49.706;18.216;2023-09-19T07:27:43;3.63;;;2.47;;
74223;SDS011;62585;49.706;18.216;2023-09-19T07:30:10;5.80;;;2.45;;
74223;SDS011;62585;49.706;18.216;2023-09-19T07:32:37;5.60;;;2.70;;
74223;SDS011;62585;49.706;18.216;2023-09-19T07:35:03;4.18;;;2.65;;
74223;SDS011;62585;49.706;18.216;2023-09-19T07:37:31;4.60;;;2.75;;
74223;SDS011;62585;49.706;18.216;2023-09-19T07:39:59;3.53;;;2.20;;
74223;SDS011;62585;49.706;18.216;2023-09-19T07:42:26;5.38;;;2.60;;
74223;SDS011;62585;49.706;18.216;2023-09-19T07:44:52;4.05;;;2.75;;
74223;SDS011;62585;49.706;18.216;2023-09-19T07:47:19;3.45;;;1.90;;
74223;SDS011;62585;49.706;18.216;2023-09-19T07:49:46;4.28;;;2.30;;
74223;SDS011;62585;49.706;18.216;2023-09-19T07:52:13;3.85;;;2.20;;
74223;SDS011;62585;49.706;18.216;2023-09-19T07:54:39;3.83;;;2.22;;
74223;SDS011;62585;49.706;18.216;2023-09-19T07:57:06;5.22;;;2.05;;
74223;SDS011;62585;49.706;18.216;2023-09-19T07:59:32;4.75;;;2.25;;
74223;SDS011;62585;49.706;18.216;2023-09-19T08:01:58;2.78;;;1.42;;
74223;SDS011;62585;49.706;18.216;2023-09-19T08:04:24;4.25;;;2.00;;
74223;SDS011;62585;49.706;18.216;2023-09-19T08:06:51;3.33;;;1.95;;
74223;SDS011;62585;49.706;18.216;2023-09-19T08:09:17;3.88;;;1.90;;
74223;SDS011;62585;49.706;18.216;2023-09-19T08:11:48;3.95;;;1.83;;
74223;SDS011;62585;49.706;18.216;2023-09-19T08:14:16;2.80;;;1.85;;
74223;SDS011;62585;49.706;18.216;2023-09-19T08:16:41;3.90;;;2.08;;
74223;SDS011;62585;49.706;18.216;2023-09-19T08:19:09;3.20;;;2.03;;
74223;SDS011;62585;49.706;18.216;2023-09-19T08:21:35;5.45;;;2.35;;
74223;SDS011;62585;49.706;18.216;2023-09-19T08:24:02;5.63;;;2.20;;
74223;SDS011;62585;49.706;18.216;2023-09-19T08:26:29;4.35;;;2.10;;
74223;SDS011;62585;49.706;18.216;2023-09-19T08:31:21;6.03;;;2.30;;
74223;SDS011;62585;49.706;18.216;2023-09-19T08:33:49;3.40;;;2.60;;
74223;SDS011;62585;49.706;18.216;2023-09-19T08:36:16;4.70;;;2.00;;
74223;SDS011;62585;49.706;18.216;2023-09-19T08:38:42;3.85;;;2.30;;
74223;SDS011;62585;49.706;18.216;2023-09-19T08:41:08;3.25;;;2.10;;
74223;SDS011;62585;49.706;18.216;2023-09-19T08:43:34;4.15;;;2.22;;
74223;SDS011;62585;49.706;18.216;2023-09-19T08:46:10;6.25;;;2.72;;
74223;SDS011;62585;49.706;18.216;2023-09-19T08:48:53;3.72;;;2.63;;
74223;SDS011;62585;49.706;18.216;2023-09-19T08:51:29;3.13;;;2.08;;
74223;SDS011;62585;49.706;18.216;2023-09-19T08:56:47;3.47;;;2.10;;
74223;SDS011;62585;49.706;18.216;2023-09-19T08:59:15;3.25;;;1.95;;
74223;SDS011;62585;49.706;18.216;2023-09-19T09:01:41;4.00;;;2.10;;
74223;SDS011;62585;49.706;18.216;2023-09-19T09:04:08;3.72;;;1.95;;
74223;SDS011;62585;49.706;18.216;2023-09-19T09:06:34;4.10;;;2.55;;
74223;SDS011;62585;49.706;18.216;2023-09-19T09:09:02;3.13;;;2.25;;
74223;SDS011;62585;49.706;18.216;2023-09-19T09:11:28;4.50;;;2.58;;
74223;SDS011;62585;49.706;18.216;2023-09-19T09:13:54;4.95;;;2.63;;
74223;SDS011;62585;49.706;18.216;2023-09-19T09:16:20;5.18;;;2.20;;
74223;SDS011;62585;49.706;18.216;2023-09-19T09:18:46;3.92;;;2.22;;
74223;SDS011;62585;49.706;18.216;2023-09-19T09:21:17;4.80;;;2.28;;
74223;SDS011;62585;49.706;18.216;2023-09-19T09:23:43;3.42;;;2.58;;
74223;SDS011;62585;49.706;18.216;2023-09-19T09:26:09;4.72;;;2.10;;
74223;SDS011;62585;49.706;18.216;2023-09-19T09:28:35;4.35;;;2.22;;
74223;SDS011;62585;49.706;18.216;2023-09-19T09:31:21;4.15;;;2.05;;
74223;SDS011;62585;49.706;18.216;2023-09-19T09:33:54;6.63;;;2.25;;
74223;SDS011;62585;49.706;18.216;2023-09-19T09:36:33;6.05;;;2.08;;
74223;SDS011;62585;49.706;18.216;2023-09-19T09:39:00;5.13;;;2.45;;
74223;SDS011;62585;49.706;18.216;2023-09-19T09:41:41;3.58;;;1.73;;
74223;SDS011;62585;49.706;18.216;2023-09-19T09:44:12;3.45;;;2.03;;
74223;SDS011;62585;49.706;18.216;2023-09-19T09:46:43;3.92;;;2.38;;
74223;SDS011;62585;49.706;18.216;2023-09-19T09:49:22;5.20;;;2.47;;
74223;SDS011;62585;49.706;18.216;2023-09-19T09:55:00;3.83;;;2.30;;
74223;SDS011;62585;49.706;18.216;2023-09-19T09:57:32;5.30;;;2.58;;
74223;SDS011;62585;49.706;18.216;2023-09-19T09:59:59;3.95;;;2.20;;
74223;SDS011;62585;49.706;18.216;2023-09-19T10:02:37;3.20;;;2.13;;
74223;SDS011;62585;49.706;18.216;2023-09-19T10:05:13;4.07;;;2.30;;
74223;SDS011;62585;49.706;18.216;2023-09-19T10:07:38;3.30;;;2.10;;
74223;SDS011;62585;49.706;18.216;2023-09-19T10:10:08;5.45;;;2.13;;
74223;SDS011;62585;49.706;18.216;2023-09-19T10:12:47;3.85;;;2.33;;
74223;SDS011;62585;49.706;18.216;2023-09-19T10:17:42;5.05;;;2.35;;
74223;SDS011;62585;49.706;18.216;2023-09-19T10:20:12;4.38;;;2.28;;
74223;SDS011;62585;49.706;18.216;2023-09-19T10:22:57;4.63;;;2.08;;
74223;SDS011;62585;49.706;18.216;2023-09-19T10:25:28;3.42;;;2.28;;
74223;SDS011;62585;49.706;18.216;2023-09-19T10:27:56;4.60;;;2.72;;
74223;SDS011;62585;49.706;18.216;2023-09-19T10:30:28;5.43;;;2.63;;
74223;SDS011;62585;49.706;18.216;2023-09-19T10:33:03;4.85;;;2.90;;
74223;SDS011;62585;49.706;18.216;2023-09-19T10:35:32;3.88;;;2.60;;
74223;SDS011;62585;49.706;18.216;2023-09-19T10:38:02;3.22;;;2.47;;
74223;SDS011;62585;49.706;18.216;2023-09-19T10:40:32;3.38;;;2.47;;
74223;SDS011;62585;49.706;18.216;2023-09-19T10:43:02;6.55;;;2.30;;
74223;SDS011;62585;49.706;18.216;2023-09-19T10:45:31;3.33;;;2.10;;
74223;SDS011;62585;49.706;18.216;2023-09-19T10:48:02;4.43;;;2.42;;
74223;SDS011;62585;49.706;18.216;2023-09-19T10:50:33;4.82;;;2.58;;
74223;SDS011;62585;49.706;18.216;2023-09-19T10:53:07;3.90;;;2.60;;
74223;SDS011;62585;49.706;18.216;2023-09-19T10:55:36;3.05;;;2.28;;
74223;SDS011;62585;49.706;18.216;2023-09-19T10:58:03;5.60;;;2.63;;
74223;SDS011;62585;49.706;18.216;2023-09-19T11:01:13;3.80;;;2.30;;
74223;SDS011;62585;49.706;18.216;2023-09-19T11:03:37;3.75;;;2.60;;
74223;SDS011;62585;49.706;18.216;2023-09-19T11:06:14;4.30;;;2.80;;
74223;SDS011;62585;49.706;18.216;2023-09-19T11:08:55;3.70;;;2.50;;
74223;SDS011;62585;49.706;18.216;2023-09-19T11:17:29;4.80;;;2.83;;
74223;SDS011;62585;49.706;18.216;2023-09-19T11:22:55;3.63;;;2.42;;
74223;SDS011;62585;49.706;18.216;2023-09-19T11:30:51;4.00;;;2.75;;
74223;SDS011;62585;49.706;18.216;2023-09-19T11:43:47;3.78;;;2.13;;
74223;SDS011;62585;49.706;18.216;2023-09-19T11:46:24;3.92;;;2.60;;
74223;SDS011;62585;49.706;18.216;2023-09-19T11:48:54;4.75;;;2.30;;
74223;SDS011;62585;49.706;18.216;2023-09-19T11:51:21;2.50;;;1.92;;
74223;SDS011;62585;49.706;18.216;2023-09-19T11:53:55;5.53;;;2.42;;
74223;SDS011;62585;49.706;18.216;2023-09-19T11:56:25;3.08;;;2.03;;
74223;SDS011;62585;49.706;18.216;2023-09-19T11:58:54;2.65;;;1.92;;
74223;SDS011;62585;49.706;18.216;2023-09-19T12:01:25;3.05;;;1.77;;
74223;SDS011;62585;49.706;18.216;2023-09-19T12:03:58;6.70;;;2.40;;
74223;SDS011;62585;49.706;18.216;2023-09-19T12:08:51;2.72;;;1.88;;
74223;SDS011;62585;49.706;18.216;2023-09-19T12:11:19;3.28;;;1.70;;
74223;SDS011;62585;49.706;18.216;2023-09-19T12:13:48;2.95;;;1.98;;
74223;SDS011;62585;49.706;18.216;2023-09-19T12:16:18;3.00;;;2.00;;
74223;SDS011;62585;49.706;18.216;2023-09-19T12:18:50;2.30;;;1.85;;
74223;SDS011;62585;49.706;18.216;2023-09-19T12:21:29;3.17;;;2.10;;
74223;SDS011;62585;49.706;18.216;2023-09-19T12:24:06;2.67;;;1.80;;
74223;SDS011;62585;49.706;18.216;2023-09-19T12:26:42;2.50;;;2.00;;
74223;SDS011;62585;49.706;18.216;2023-09-19T12:29:20;3.17;;;1.95;;
74223;SDS011;62585;49.706;18.216;2023-09-19T12:31:54;4.50;;;2.15;;
74223;SDS011;62585;49.706;18.216;2023-09-19T12:34:25;4.35;;;1.70;;
74223;SDS011;62585;49.706;18.216;2023-09-19T12:37:06;4.10;;;2.20;;
74223;SDS011;62585;49.706;18.216;2023-09-19T12:39:41;3.38;;;1.98;;
74223;SDS011;62585;49.706;18.216;2023-09-19T12:42:11;2.90;;;1.98;;
74223;SDS011;62585;49.706;18.216;2023-09-19T12:44:40;4.10;;;2.13;;
74223;SDS011;62585;49.706;18.216;2023-09-19T12:47:09;4.40;;;2.28;;
74223;SDS011;62585;49.706;18.216;2023-09-19T12:55:28;3.15;;;2.40;;
74223;SDS011;62585;49.706;18.216;2023-09-19T13:00:44;4.25;;;2.25;;
74223;SDS011;62585;49.706;18.216;2023-09-19T13:06:03;6.60;;;2.78;;
74223;SDS011;62585;49.706;18.216;2023-09-19T13:08:34;4.75;;;2.70;;
74223;SDS011;62585;49.706;18.216;2023-09-19T13:11:13;4.78;;;2.30;;
74223;SDS011;62585;49.706;18.216;2023-09-19T13:13:44;3.53;;;2.33;;
74223;SDS011;62585;49.706;18.216;2023-09-19T13:16:11;3.38;;;2.40;;
74223;SDS011;62585;49.706;18.216;2023-09-19T13:19:13;4.28;;;2.40;;
74223;SDS011;62585;49.706;18.216;2023-09-19T13:21:32;4.10;;;2.38;;
74223;SDS011;62585;49.706;18.216;2023-09-19T13:24:21;2.90;;;2.60;;
74223;SDS011;62585;49.706;18.216;2023-09-19T13:26:48;2.45;;;2.25;;
74223;SDS011;62585;49.706;18.216;2023-09-19T13:29:15;3.22;;;2.50;;
74223;SDS011;62585;49.706;18.216;2023-09-19T13:32:01;4.35;;;2.40;;
74223;SDS011;62585;49.706;18.216;2023-09-19T13:34:27;4.07;;;2.05;;
74223;SDS011;62585;49.706;18.216;2023-09-19T13:36:54;2.97;;;2.40;;
74223;SDS011;62585;49.706;18.216;2023-09-19T13:39:20;3.53;;;2.40;;
74223;SDS011;62585;49.706;18.216;2023-09-19T13:41:49;2.38;;;2.08;;
74223;SDS011;62585;49.706;18.216;2023-09-19T13:44:15;4.45;;;2.30;;
74223;SDS011;62585;49.706;18.216;2023-09-19T13:46:42;2.50;;;2.30;;
74223;SDS011;62585;49.706;18.216;2023-09-19T13:49:11;3.08;;;2.05;;
74223;SDS011;62585;49.706;18.216;2023-09-19T13:51:37;3.08;;;2.20;;
74223;SDS011;62585;49.706;18.216;2023-09-19T13:54:03;2.58;;;2.10;;
74223;SDS011;62585;49.706;18.216;2023-09-19T13:56:29;3.03;;;2.30;;
74223;SDS011;62585;49.706;18.216;2023-09-19T13:58:56;2.50;;;2.03;;
74223;SDS011;62585;49.706;18.216;2023-09-19T14:01:22;3.35;;;2.47;;
74223;SDS011;62585;49.706;18.216;2023-09-19T14:03:48;3.42;;;2.40;;
74223;SDS011;62585;49.706;18.216;2023-09-19T14:06:16;3.60;;;1.92;;
74223;SDS011;62585;49.706;18.216;2023-09-19T14:08:45;2.65;;;1.77;;
74223;SDS011;62585;49.706;18.216;2023-09-19T14:11:15;3.05;;;2.03;;
74223;SDS011;62585;49.706;18.216;2023-09-19T14:13:51;3.78;;;2.35;;
74223;SDS011;62585;49.706;18.216;2023-09-19T14:16:17;3.97;;;2.17;;
74223;SDS011;62585;49.706;18.216;2023-09-19T14:18:44;2.92;;;1.80;;
74223;SDS011;62585;49.706;18.216;2023-09-19T14:21:11;4.30;;;2.22;;
74223;SDS011;62585;49.706;18.216;2023-09-19T14:23:37;2.38;;;1.60;;
74223;SDS011;62585;49.706;18.216;2023-09-19T14:26:04;4.70;;;2.17;;
74223;SDS011;62585;49.706;18.216;2023-09-19T14:28:31;2.47;;;1.58;;
74223;SDS011;62585;49.706;18.216;2023-09-19T14:31:06;2.13;;;1.70;;
74223;SDS011;62585;49.706;18.216;2023-09-19T14:33:32;2.97;;;1.95;;
74223;SDS011;62585;49.706;18.216;2023-09-19T14:35:58;2.28;;;1.77;;
74223;SDS011;62585;49.706;18.216;2023-09-19T14:38:23;2.30;;;1.63;;
74223;SDS011;62585;49.706;18.216;2023-09-19T14:40:58;3.03;;;1.52;;
74223;SDS011;62585;49.706;18.216;2023-09-19T14:43:28;2.72;;;2.03;;
74223;SDS011;62585;49.706;18.216;2023-09-19T14:46:05;2.33;;;1.70;;
74223;SDS011;62585;49.706;18.216;2023-09-19T14:48:35;3.17;;;1.50;;
74223;SDS011;62585;49.706;18.216;2023-09-19T14:51:02;3.65;;;1.70;;
74223;SDS011;62585;49.706;18.216;2023-09-19T14:55:54;1.83;;;1.40;;
74223;SDS011;62585;49.706;18.216;2023-09-19T14:58:23;1.90;;;1.30;;
74223;SDS011;62585;49.706;18.216;2023-09-19T15:00:51;3.15;;;1.63;;
74223;SDS011;62585;49.706;18.216;2023-09-19T15:03:20;2.80;;;1.58;;
74223;SDS011;62585;49.706;18.216;2023-09-19T15:05:48;2.22;;;1.50;;
74223;SDS011;62585;49.706;18.216;2023-09-19T15:08:16;2.33;;;1.55;;
74223;SDS011;62585;49.706;18.216;2023-09-19T15:10:48;2.67;;;1.60;;
74223;SDS011;62585;49.706;18.216;2023-09-19T15:13:16;2.13;;;1.58;;
74223;SDS011;62585;49.706;18.216;2023-09-19T15:15:42;3.13;;;1.50;;
74223;SDS011;62585;49.706;18.216;2023-09-19T15:18:10;2.20;;;1.30;;
74223;SDS011;62585;49.706;18.216;2023-09-19T15:20:42;2.75;;;1.50;;
74223;SDS011;62585;49.706;18.216;2023-09-19T15:23:09;1.95;;;1.33;;
74223;SDS011;62585;49.706;18.216;2023-09-19T15:25:35;3.78;;;1.52;;
74223;SDS011;62585;49.706;18.216;2023-09-19T15:28:01;2.92;;;1.70;;
74223;SDS011;62585;49.706;18.216;2023-09-19T15:30:39;3.90;;;1.35;;
74223;SDS011;62585;49.706;18.216;2023-09-19T15:33:04;3.28;;;1.58;;
74223;SDS011;62585;49.706;18.216;2023-09-19T15:35:30;2.30;;;1.55;;
74223;SDS011;62585;49.706;18.216;2023-09-19T15:37:56;2.33;;;1.52;;
74223;SDS011;62585;49.706;18.216;2023-09-19T15:40:24;3.72;;;1.58;;
74223;SDS011;62585;49.706;18.216;2023-09-19T15:42:51;2.13;;;1.27;;
74223;SDS011;62585;49.706;18.216;2023-09-19T15:45:17;3.50;;;1.80;;
74223;SDS011;62585;49.706;18.216;2023-09-19T15:50:10;2.95;;;1.38;;
74223;SDS011;62585;49.706;18.216;2023-09-19T15:52:38;2.53;;;1.42;;
74223;SDS011;62585;49.706;18.216;2023-09-19T15:55:05;2.35;;;1.60;;
74223;SDS011;62585;49.706;18.216;2023-09-19T15:57:37;2.55;;;1.63;;